Mostly Cloudy Current Weather (METAR) For Bournemouth Airport

All times on the weather descriptions are local

Observed at 10:20 - (41 mins ago)

Mostly Cloudy

11°C

Mostly Cloudy
Clouds: Broken Clouds at 700ft
Wind: 230° at 16 knots
Visibility: Greater than 10km
QNH: 1014
Dew Point: 10°C
Runway in Use: Runway 26

Sunrise Today: 05:49
Sunset Today: 18:34

Forecast Weather (TAF) For Bournemouth Airport

Issued at 00:00 - (2 days 12 hrs ago)


Runway in Use: Unable to determine, wind is clam

Forecast valid until 00:00 on Tuesday

METAR/TAF RAW METAR / TAF

EGHH 281020Z 23016KT 9999 BKN007 11/10 Q1014

Weather Widget

Put weather from any of our airports on your website with our weather widget.

Find Another Search

Airport Search


Please Wait Please Wait - Loading
Close
Close

Login

Username:

Password:

Remember Me:

Remember me on this computer

Forgotten your password? Get a reset password sent to your registered e-mail address

Close

User Private Message

Subject:

Message: